Time;durP1;ratioP1;P1;durP2;ratioP2;P2;SDS_P1;SDS_P2;PMS_P1;PMS_P2;Temp;Humidity;BMP_temperature;BMP_pressure;BME280_temperature;BME280_humidity;BME280_pressure;Samples;Min_cycle;Max_cycle;Signal;HPM_P1;HPM_P2
2022/08/08 00:01:57;;;;;;;2.80;2.00;;;23.40;40.10;;;;;;5015481;28;20800;-44
2022/08/08 00:04:41;;;;;;;1.60;1.50;;;23.40;40.30;;;;;;5023312;28;20780;-48
2022/08/08 00:07:25;;;;;;;2.27;1.97;;;23.30;40.40;;;;;;5022148;28;20591;-44
2022/08/08 00:10:35;;;;;;;1.50;1.40;;;23.20;40.40;;;;;;5022278;28;20817;-46
2022/08/08 00:13:04;;;;;;;2.00;1.80;;;23.20;40.70;;;;;;5025817;28;20495;-45
2022/08/08 00:15:37;;;;;;;4.97;2.10;;;23.10;40.70;;;;;;5033569;28;20439;-48
2022/08/08 00:18:18;;;;;;;2.17;1.63;;;23.10;40.70;;;;;;5032578;28;20773;-48
2022/08/08 00:21:00;;;;;;;4.83;1.70;;;23.20;40.60;;;;;;5033550;28;20941;-44
2022/08/08 00:24:09;;;;;;;1.33;1.23;;;23.20;40.50;;;;;;5033196;28;20428;-44
2022/08/08 00:26:40;;;;;;;2.77;2.33;;;23.20;40.60;;;;;;4972701;28;20446;-46
2022/08/08 00:29:26;;;;;;;1.67;1.57;;;23.10;40.60;;;;;;4971998;28;20438;-44
2022/08/08 00:31:57;;;;;;;2.40;1.87;;;23.10;40.40;;;;;;5013551;28;20500;-47
2022/08/08 00:37:39;;;;;;;1.87;1.77;;;23.20;40.40;;;;;;5033623;28;20961;-44
2022/08/08 00:40:29;;;;;;;1.83;1.73;;;23.20;40.50;;;;;;5032985;28;20998;-47
2022/08/08 00:43:10;;;;;;;3.67;1.70;;;23.10;41.00;;;;;;5032868;28;20438;-48
2022/08/08 00:45:47;;;;;;;1.73;1.60;;;22.80;41.10;;;;;;5032990;28;20916;-49
2022/08/08 00:48:43;;;;;;;2.03;1.80;;;22.90;40.80;;;;;;5033420;28;20432;-47
2022/08/08 00:51:27;;;;;;;2.57;1.77;;;22.90;40.90;;;;;;5033033;28;20439;-48
2022/08/08 00:54:20;;;;;;;1.90;1.80;;;22.90;40.80;;;;;;5032646;28;20511;-47
2022/08/08 00:57:18;;;;;;;1.90;1.80;;;22.90;41.20;;;;;;5026035;28;20544;-47
2022/08/08 01:00:26;;;;;;;1.93;1.43;;;22.80;41.40;;;;;;5013242;28;20433;-48
2022/08/08 01:03:15;;;;;;;1.70;1.60;;;22.80;41.50;;;;;;5013605;28;20436;-45
2022/08/08 01:06:18;;;;;;;3.53;1.70;;;22.70;41.50;;;;;;5013136;28;20521;-47
2022/08/08 01:08:53;;;;;;;1.70;1.60;;;22.70;41.50;;;;;;5012903;28;21230;-47
2022/08/08 01:11:36;;;;;;;2.43;2.10;;;22.70;41.50;;;;;;5018303;28;20479;-48
2022/08/08 01:14:23;;;;;;;2.70;1.57;;;22.70;41.50;;;;;;5032581;28;20590;-45
2022/08/08 01:17:16;;;;;;;2.23;1.60;;;22.70;41.60;;;;;;5032998;28;20821;-46
2022/08/08 01:20:19;;;;;;;2.50;2.30;;;22.40;42.30;;;;;;5032646;28;20447;-48
2022/08/08 01:23:22;;;;;;;1.47;1.37;;;22.40;42.70;;;;;;5032672;28;20816;-45
2022/08/08 01:26:14;;;;;;;2.07;1.97;;;22.50;43.00;;;;;;5032495;28;20834;-48
2022/08/08 01:29:19;;;;;;;2.07;1.80;;;22.40;43.20;;;;;;5032439;28;20436;-48
2022/08/08 01:32:18;;;;;;;2.60;1.97;;;22.50;43.20;;;;;;5032510;28;20497;-46
2022/08/08 01:35:01;;;;;;;1.90;1.80;;;22.60;43.10;;;;;;5032459;28;20428;-46
2022/08/08 01:37:41;;;;;;;1.80;1.70;;;22.50;43.30;;;;;;5030973;28;20435;-45
2022/08/08 01:40:26;;;;;;;1.70;1.57;;;22.50;43.10;;;;;;5032234;28;20442;-45
2022/08/08 01:43:31;;;;;;;3.43;1.80;;;22.50;43.20;;;;;;5032525;28;20439;-48
2022/08/08 01:46:29;;;;;;;1.57;1.47;;;22.40;43.00;;;;;;4971021;28;20434;-48
2022/08/08 01:49:16;;;;;;;2.30;1.60;;;22.40;43.00;;;;;;5018744;28;20450;-45
2022/08/08 01:51:53;;;;;;;2.23;2.03;;;22.30;43.00;;;;;;5032156;28;20518;-47
2022/08/08 01:54:27;;;;;;;2.37;1.80;;;22.00;43.10;;;;;;5031227;28;20490;-48
2022/08/08 01:57:24;;;;;;;1.67;1.50;;;21.80;43.50;;;;;;5020665;28;20451;-47
2022/08/08 02:00:20;;;;;;;2.23;1.70;;;21.80;43.60;;;;;;5031574;28;20440;-45
2022/08/08 02:02:57;;;;;;;3.50;1.60;;;21.80;43.80;;;;;;4975964;28;20442;-47
2022/08/08 02:05:49;;;;;;;1.97;1.87;;;21.80;43.80;;;;;;5013354;28;20527;-44
2022/08/08 02:08:34;;;;;;;1.77;1.67;;;21.70;43.50;;;;;;5020596;28;20904;-45
2022/08/08 02:11:05;;;;;;;2.50;1.80;;;21.60;43.70;;;;;;5031395;28;20490;-46
2022/08/08 02:13:49;;;;;;;1.40;1.30;;;21.60;43.80;;;;;;5031343;28;20961;-43
2022/08/08 02:16:43;;;;;;;2.87;1.80;;;21.70;43.60;;;;;;5032015;28;20498;-48
2022/08/08 02:19:24;;;;;;;1.50;1.40;;;21.70;43.60;;;;;;5031552;28;20443;-44
2022/08/08 02:24:52;;;;;;;1.97;1.87;;;21.60;43.80;;;;;;5030470;28;20475;-44
2022/08/08 02:27:25;;;;;;;1.77;1.67;;;21.60;43.70;;;;;;5031616;28;20434;-46
2022/08/08 02:30:01;;;;;;;1.90;1.80;;;21.60;43.60;;;;;;5029849;28;20448;-48
2022/08/08 02:32:42;;;;;;;1.77;1.67;;;21.70;43.80;;;;;;5031261;28;20478;-44
2022/08/08 02:35:32;;;;;;;2.13;1.80;;;21.60;43.90;;;;;;5030977;28;20493;-44
2022/08/08 02:38:26;;;;;;;1.90;1.80;;;21.60;44.10;;;;;;5031445;28;20427;-48
2022/08/08 02:41:16;;;;;;;1.83;1.73;;;21.60;44.10;;;;;;5031254;28;20428;-47
2022/08/08 02:44:13;;;;;;;1.80;1.67;;;21.60;44.00;;;;;;5030993;28;20424;-43
2022/08/08 02:47:18;;;;;;;1.97;1.87;;;21.60;43.90;;;;;;5030546;28;20452;-45
2022/08/08 02:50:11;;;;;;;1.77;1.57;;;21.60;44.00;;;;;;5019936;28;20454;-47
2022/08/08 02:53:13;;;;;;;1.90;1.80;;;21.60;43.90;;;;;;5030914;28;20818;-44
2022/08/08 02:56:15;;;;;;;2.17;1.80;;;21.60;44.10;;;;;;5011024;28;20436;-47
2022/08/08 02:58:46;;;;;;;1.93;1.50;;;21.60;44.10;;;;;;5008210;28;20871;-44
2022/08/08 03:01:39;;;;;;;2.13;1.97;;;21.50;44.10;;;;;;5024341;28;20441;-44
2022/08/08 03:04:37;;;;;;;2.00;1.90;;;21.50;44.10;;;;;;5017436;28;20438;-44
2022/08/08 03:07:15;;;;;;;1.90;1.70;;;21.50;44.20;;;;;;5019210;28;20975;-47
2022/08/08 03:10:20;;;;;;;2.20;2.00;;;21.40;44.10;;;;;;5010834;28;20491;-48
2022/08/08 03:12:48;;;;;;;2.17;1.80;;;21.30;44.10;;;;;;5011139;28;20978;-44
2022/08/08 03:15:23;;;;;;;1.97;1.60;;;21.20;44.50;;;;;;5010702;28;20455;-44
2022/08/08 03:18:04;;;;;;;2.37;1.80;;;21.10;44.50;;;;;;5018035;28;20514;-45
2022/08/08 03:20:49;;;;;;;5.30;2.13;;;21.00;44.90;;;;;;5030051;28;20450;-44
2022/08/08 03:23:16;;;;;;;1.70;1.60;;;21.00;44.70;;;;;;5029404;28;20808;-44
2022/08/08 03:25:45;;;;;;;1.83;1.73;;;21.00;44.60;;;;;;5030439;28;20428;-47
2022/08/08 03:28:31;;;;;;;2.30;1.90;;;21.10;44.50;;;;;;5030832;28;20478;-43
2022/08/08 03:30:56;;;;;;;2.20;2.10;;;21.10;44.30;;;;;;5030547;28;20439;-45
2022/08/08 03:33:23;;;;;;;1.60;1.50;;;21.10;44.40;;;;;;5029801;28;20471;-44
2022/08/08 03:35:50;;;;;;;1.90;1.80;;;21.10;44.40;;;;;;5030774;28;20224;-44
2022/08/08 03:38:20;;;;;;;1.90;1.80;;;20.90;44.90;;;;;;5034086;28;20923;-44
2022/08/08 03:40:53;;;;;;;2.80;1.97;;;20.80;45.40;;;;;;5034732;28;20451;-47
2022/08/08 03:43:18;;;;;;;2.00;1.90;;;20.70;45.70;;;;;;5034457;28;20463;-44
2022/08/08 03:45:45;;;;;;;1.90;1.80;;;20.50;46.30;;;;;;5034735;28;20456;-47
2022/08/08 03:48:11;;;;;;;3.27;2.23;;;20.50;46.40;;;;;;5034565;28;20646;-44
2022/08/08 03:50:48;;;;;;;1.77;1.67;;;20.50;46.20;;;;;;5032205;28;20865;-45
2022/08/08 03:53:16;;;;;;;3.80;1.93;;;20.50;46.50;;;;;;5034232;28;20782;-43
2022/08/08 03:55:47;;;;;;;1.80;1.70;;;20.20;47.20;;;;;;5022642;28;20487;-44
2022/08/08 03:58:23;;;;;;;2.77;2.27;;;20.10;47.50;;;;;;5014775;28;20435;-44
2022/08/08 04:00:56;;;;;;;10.03;2.30;;;20.20;47.50;;;;;;5018578;28;20432;-44
2022/08/08 04:03:23;;;;;;;4.10;2.20;;;20.00;47.80;;;;;;5014770;28;20508;-43
2022/08/08 04:05:49;;;;;;;1.70;1.60;;;19.90;48.00;;;;;;5032557;28;20509;-44
2022/08/08 04:08:20;;;;;;;8.20;2.00;;;20.00;47.80;;;;;;5014824;28;20428;-45
2022/08/08 04:10:47;;;;;;;2.40;2.10;;;20.10;47.70;;;;;;5014393;28;20429;-44
2022/08/08 04:13:13;;;;;;;3.77;2.00;;;20.00;47.90;;;;;;5014440;28;20519;-47
2022/08/08 04:15:39;;;;;;;2.27;2.07;;;19.70;48.40;;;;;;5013958;28;20472;-47
2022/08/08 04:18:05;;;;;;;2.23;2.03;;;19.40;49.30;;;;;;5012795;28;20237;-47
2022/08/08 04:20:31;;;;;;;4.33;2.20;;;19.40;49.70;;;;;;5013549;28;20182;-47
2022/08/08 04:22:56;;;;;;;1.90;1.80;;;19.30;50.20;;;;;;5014422;28;20920;-47
2022/08/08 04:25:22;;;;;;;2.40;2.30;;;19.40;49.70;;;;;;5013584;28;20232;-46
2022/08/08 04:27:48;;;;;;;2.40;2.20;;;19.60;49.10;;;;;;5014196;28;20198;-46
2022/08/08 04:30:13;;;;;;;2.87;1.80;;;19.80;48.60;;;;;;5013589;28;20204;-48
2022/08/08 04:32:39;;;;;;;3.10;2.00;;;19.90;48.20;;;;;;5013961;28;20307;-48
2022/08/08 04:35:05;;;;;;;3.43;2.07;;;20.00;47.90;;;;;;5013271;28;20281;-47
2022/08/08 04:37:31;;;;;;;3.10;2.40;;;20.10;47.60;;;;;;5014006;28;20653;-48
2022/08/08 04:39:57;;;;;;;2.43;1.90;;;20.10;48.10;;;;;;5013414;28;20465;-48
2022/08/08 04:42:24;;;;;;;2.30;2.10;;;20.00;47.60;;;;;;5013526;28;20212;-47
2022/08/08 04:44:51;;;;;;;2.10;1.90;;;20.10;47.60;;;;;;5010460;28;20205;-47
2022/08/08 04:47:16;;;;;;;2.13;1.93;;;20.10;47.50;;;;;;5013384;28;20441;-44
2022/08/08 04:49:42;;;;;;;2.73;1.87;;;20.00;47.70;;;;;;5013139;28;20491;-48
2022/08/08 04:52:08;;;;;;;2.43;2.23;;;20.00;47.80;;;;;;5013153;28;20314;-47
2022/08/08 04:54:33;;;;;;;2.33;2.20;;;20.00;47.90;;;;;;5026365;28;20197;-47
2022/08/08 04:56:59;;;;;;;3.60;2.50;;;19.90;48.10;;;;;;5013810;28;20280;-46
2022/08/08 04:59:25;;;;;;;2.33;2.20;;;20.00;47.90;;;;;;5013121;28;20225;-45
2022/08/08 05:01:50;;;;;;;2.37;2.17;;;20.00;48.00;;;;;;5017822;28;20201;-44
2022/08/08 05:04:16;;;;;;;2.40;2.20;;;19.80;48.80;;;;;;5020766;28;20582;-45
2022/08/08 05:06:42;;;;;;;2.60;2.00;;;19.60;49.20;;;;;;5024870;28;20202;-48
2022/08/08 05:09:08;;;;;;;2.53;2.27;;;19.60;49.40;;;;;;5012977;28;20563;-48
2022/08/08 05:11:34;;;;;;;2.23;1.90;;;19.70;49.20;;;;;;5011591;28;20599;-45
2022/08/08 05:14:00;;;;;;;3.33;1.63;;;19.80;49.20;;;;;;5012812;28;20432;-44
2022/08/08 05:16:26;;;;;;;2.30;2.20;;;19.80;49.00;;;;;;5013403;28;20190;-45
2022/08/08 05:18:52;;;;;;;3.00;2.70;;;19.60;49.40;;;;;;5012600;28;20606;-48
2022/08/08 05:21:17;;;;;;;2.30;2.10;;;19.10;50.40;;;;;;5012857;28;20272;-43
2022/08/08 05:23:43;;;;;;;2.90;2.37;;;19.00;50.80;;;;;;5012365;28;20523;-44
2022/08/08 05:26:09;;;;;;;4.27;2.50;;;19.30;50.60;;;;;;5013190;28;20673;-44
2022/08/08 05:28:34;;;;;;;2.60;2.40;;;19.50;50.30;;;;;;5012589;28;20201;-46
2022/08/08 05:31:00;;;;;;;2.70;2.50;;;19.50;50.00;;;;;;5012703;28;20561;-44
2022/08/08 05:33:25;;;;;;;2.50;2.30;;;19.60;49.80;;;;;;5012346;28;20198;-44
2022/08/08 05:35:53;;;;;;;3.13;2.93;;;19.80;49.60;;;;;;5012752;28;20204;-43
2022/08/08 05:38:21;;;;;;;3.93;2.50;;;19.90;49.50;;;;;;5010771;28;20200;-45
2022/08/08 05:40:49;;;;;;;3.00;2.80;;;20.00;49.30;;;;;;5012409;28;20429;-47
2022/08/08 05:43:38;;;;;;;2.50;2.30;;;20.10;49.00;;;;;;5012445;28;20488;-47
2022/08/08 05:46:06;;;;;;;3.23;2.40;;;20.40;48.70;;;;;;5012910;28;20913;-45
2022/08/08 05:48:32;;;;;;;3.63;2.93;;;20.50;48.60;;;;;;5011921;28;20436;-48
2022/08/08 05:50:58;;;;;;;2.60;2.40;;;20.70;48.40;;;;;;5012225;28;20452;-43
2022/08/08 05:53:27;;;;;;;6.70;2.40;;;20.60;48.40;;;;;;5017743;28;20928;-44
2022/08/08 05:55:54;;;;;;;2.73;2.50;;;20.70;48.20;;;;;;5018965;28;20217;-44
2022/08/08 05:58:28;;;;;;;4.30;2.50;;;20.80;48.10;;;;;;5012001;28;20425;-45
2022/08/08 06:00:59;;;;;;;2.70;2.50;;;21.00;47.70;;;;;;5015413;28;20812;-43
2022/08/08 06:03:28;;;;;;;2.60;2.40;;;21.10;47.50;;;;;;5012017;28;20489;-47
2022/08/08 06:05:57;;;;;;;2.87;2.50;;;21.40;47.30;;;;;;5029656;28;20975;-46
2022/08/08 06:08:27;;;;;;;2.50;2.30;;;21.50;47.00;;;;;;5011793;28;20421;-47
2022/08/08 06:10:55;;;;;;;2.87;2.57;;;21.60;46.70;;;;;;5011854;28;20429;-49
2022/08/08 06:13:21;;;;;;;4.70;3.03;;;21.50;47.10;;;;;;5011766;28;20432;-46
2022/08/08 06:15:48;;;;;;;6.87;2.63;;;21.70;46.80;;;;;;5011923;28;20566;-44
2022/08/08 06:18:17;;;;;;;3.00;2.77;;;21.90;46.60;;;;;;5012291;28;20431;-45
2022/08/08 06:20:44;;;;;;;3.30;2.90;;;21.90;46.50;;;;;;5011439;28;20433;-44
2022/08/08 06:23:11;;;;;;;3.20;2.90;;;22.20;46.40;;;;;;5011973;28;20520;-45
2022/08/08 06:25:41;;;;;;;3.13;2.77;;;22.30;46.10;;;;;;5011320;28;20440;-44
2022/08/08 06:28:43;;;;;;;3.83;2.90;;;22.50;45.70;;;;;;5016021;28;20529;-44
2022/08/08 06:31:11;;;;;;;2.57;2.37;;;22.70;45.50;;;;;;5010013;28;20443;-43
2022/08/08 06:33:45;;;;;;;3.50;3.13;;;22.90;45.20;;;;;;5011077;28;21112;-44
2022/08/08 06:36:13;;;;;;;3.00;2.80;;;23.00;45.00;;;;;;5011903;28;20764;-44
2022/08/08 06:38:44;;;;;;;5.60;2.97;;;23.30;44.70;;;;;;5011144;28;20573;-47
2022/08/08 06:41:16;;;;;;;4.00;2.90;;;23.50;44.50;;;;;;5011196;28;20429;-44
2022/08/08 06:43:45;;;;;;;3.07;2.77;;;23.70;44.10;;;;;;5018064;28;20817;-44
2022/08/08 06:46:11;;;;;;;3.47;2.90;;;23.90;43.90;;;;;;5031335;28;20911;-44
2022/08/08 06:48:37;;;;;;;6.00;2.87;;;24.00;43.90;;;;;;5030914;28;20554;-44
2022/08/08 06:51:04;;;;;;;4.07;2.93;;;24.00;44.20;;;;;;5030698;28;20967;-44
2022/08/08 06:53:30;;;;;;;2.80;2.60;;;24.20;43.90;;;;;;5030659;28;20225;-47
2022/08/08 06:55:57;;;;;;;3.27;2.53;;;24.40;43.50;;;;;;5017515;28;20441;-44
2022/08/08 06:58:22;;;;;;;2.70;2.50;;;24.50;43.20;;;;;;5009303;28;20433;-46
2022/08/08 07:00:49;;;;;;;3.73;2.40;;;24.70;43.10;;;;;;5015051;28;20788;-46
2022/08/08 07:03:46;;;;;;;3.40;3.03;;;25.00;42.90;;;;;;5011500;28;20234;-48
2022/08/08 07:06:18;;;;;;;2.40;2.20;;;25.20;42.60;;;;;;5011452;28;20437;-44
2022/08/08 07:08:46;;;;;;;3.53;2.90;;;25.40;42.00;;;;;;5011113;28;20428;-45
2022/08/08 07:11:17;;;;;;;3.13;2.33;;;25.60;42.00;;;;;;5010493;28;20432;-44
2022/08/08 07:13:51;;;;;;;2.20;2.10;;;25.90;41.60;;;;;;5011195;28;20539;-44
2022/08/08 07:16:45;;;;;;;2.60;2.40;;;26.10;41.20;;;;;;5019108;28;20451;-45
2022/08/08 07:19:36;;;;;;;3.23;2.80;;;26.30;41.10;;;;;;5030266;28;20458;-44
2022/08/08 07:22:07;;;;;;;3.70;3.27;;;26.50;40.80;;;;;;5030434;28;20914;-44
2022/08/08 07:24:38;;;;;;;2.70;2.50;;;26.60;40.70;;;;;;5028447;28;20828;-45
2022/08/08 07:27:09;;;;;;;3.30;2.37;;;26.80;40.80;;;;;;5030642;28;20444;-44
2022/08/08 07:29:36;;;;;;;2.83;2.50;;;27.10;40.30;;;;;;5030191;28;20428;-44
2022/08/08 07:32:02;;;;;;;3.30;3.00;;;27.30;39.80;;;;;;5030098;28;20466;-47
2022/08/08 07:34:28;;;;;;;2.90;2.70;;;27.50;39.30;;;;;;5030294;28;20982;-47
2022/08/08 07:36:56;;;;;;;4.50;2.97;;;27.60;39.00;;;;;;5030692;28;20436;-48
2022/08/08 07:39:22;;;;;;;4.43;4.13;;;27.70;38.80;;;;;;5030250;28;20428;-48
2022/08/08 07:41:49;;;;;;;2.80;2.40;;;27.80;38.70;;;;;;5030042;28;20480;-48
2022/08/08 07:44:17;;;;;;;3.00;2.80;;;28.00;38.80;;;;;;5030229;28;20428;-48
2022/08/08 07:46:44;;;;;;;3.30;3.00;;;28.10;38.60;;;;;;5030564;28;20428;-45
2022/08/08 07:49:12;;;;;;;3.10;2.70;;;28.30;38.50;;;;;;5030055;28;20439;-49
2022/08/08 07:51:39;;;;;;;4.90;3.30;;;28.40;38.00;;;;;;5028527;28;20436;-44
2022/08/08 07:54:13;;;;;;;2.77;2.57;;;28.50;37.90;;;;;;5030075;28;20541;-48
2022/08/08 07:56:51;;;;;;;4.43;3.13;;;28.60;38.20;;;;;;5011079;28;20429;-45
2022/08/08 07:59:18;;;;;;;5.93;2.57;;;28.70;37.80;;;;;;5010235;28;20429;-47
2022/08/08 08:01:56;;;;;;;2.43;2.33;;;28.80;37.40;;;;;;5015053;28;20507;-45
2022/08/08 08:04:28;;;;;;;3.30;3.00;;;29.00;37.30;;;;;;5018681;28;20509;-45
2022/08/08 08:06:54;;;;;;;3.90;2.73;;;29.10;36.90;;;;;;5020212;28;20433;-44
2022/08/08 08:09:25;;;;;;;5.37;2.80;;;29.30;36.90;;;;;;5010169;28;20428;-45
2022/08/08 08:11:52;;;;;;;3.63;3.33;;;29.00;37.00;;;;;;5010011;28;20440;-45
2022/08/08 08:14:28;;;;;;;2.50;2.30;;;29.00;37.30;;;;;;5010224;28;20440;-49
2022/08/08 08:16:55;;;;;;;4.00;2.63;;;29.40;37.00;;;;;;5010525;28;20804;-46
2022/08/08 08:19:25;;;;;;;2.57;2.47;;;29.70;36.70;;;;;;5008798;28;20776;-45
2022/08/08 08:21:51;;;;;;;3.10;2.80;;;29.90;35.90;;;;;;5009703;28;20488;-44
2022/08/08 08:24:16;;;;;;;3.20;2.90;;;30.10;35.70;;;;;;5013015;28;20436;-46
2022/08/08 08:26:42;;;;;;;3.77;3.47;;;30.40;35.00;;;;;;5014486;28;20186;-45
2022/08/08 08:29:08;;;;;;;3.37;2.67;;;30.40;34.80;;;;;;5013554;28;20189;-48
2022/08/08 08:31:34;;;;;;;3.93;3.17;;;30.60;34.50;;;;;;5013882;28;20194;-49
2022/08/08 08:34:01;;;;;;;3.27;2.77;;;30.70;34.20;;;;;;5013448;28;20239;-46
2022/08/08 08:36:28;;;;;;;3.50;3.20;;;30.20;34.70;;;;;;5014049;28;20465;-44
2022/08/08 08:38:53;;;;;;;2.90;2.70;;;30.10;35.10;;;;;;5013541;28;20437;-45
2022/08/08 08:41:20;;;;;;;3.13;2.90;;;30.20;34.70;;;;;;5013475;28;20197;-47
2022/08/08 08:43:48;;;;;;;3.37;3.07;;;30.00;34.90;;;;;;5012758;28;20198;-48
2022/08/08 08:46:14;;;;;;;2.53;2.43;;;30.00;35.00;;;;;;5013032;28;20912;-49
2022/08/08 08:48:43;;;;;;;3.27;2.67;;;29.80;35.30;;;;;;5013233;28;20439;-47
2022/08/08 08:51:14;;;;;;;3.20;2.80;;;30.00;35.10;;;;;;5013089;28;20190;-48
2022/08/08 08:53:51;;;;;;;3.20;3.00;;;30.40;34.70;;;;;;5021288;28;20471;-45
2022/08/08 08:56:19;;;;;;;3.20;3.00;;;30.50;34.90;;;;;;5017145;28;20791;-48
2022/08/08 08:58:47;;;;;;;3.50;3.10;;;30.80;33.90;;;;;;5013274;28;20435;-46
2022/08/08 09:01:15;;;;;;;2.70;2.20;;;31.00;33.40;;;;;;5017820;28;20986;-48
2022/08/08 09:03:44;;;;;;;2.87;2.63;;;31.10;33.20;;;;;;5015971;28;20488;-49
2022/08/08 09:06:11;;;;;;;3.30;3.00;;;31.30;33.00;;;;;;5028812;28;20499;-46
2022/08/08 09:08:43;;;;;;;2.77;2.57;;;31.20;32.10;;;;;;5013030;28;20477;-45
2022/08/08 09:11:10;;;;;;;2.70;2.50;;;31.00;32.70;;;;;;5011375;28;20436;-46
2022/08/08 09:13:38;;;;;;;2.67;2.47;;;31.30;32.10;;;;;;5012663;28;20425;-47
2022/08/08 09:16:04;;;;;;;2.57;2.37;;;31.80;31.80;;;;;;5013276;28;20873;-48
2022/08/08 09:18:30;;;;;;;2.60;2.43;;;32.20;31.30;;;;;;5012886;28;20512;-47
2022/08/08 09:20:57;;;;;;;2.33;2.23;;;32.60;30.30;;;;;;5012932;28;20227;-46
2022/08/08 09:23:24;;;;;;;2.90;2.33;;;32.50;30.00;;;;;;5012346;28;20280;-48
2022/08/08 09:26:03;;;;;;;3.40;2.93;;;32.50;30.40;;;;;;5013001;28;20429;-49
2022/08/08 09:28:36;;;;;;;3.90;2.47;;;32.20;31.00;;;;;;5012406;28;20435;-47
2022/08/08 09:31:06;;;;;;;2.93;2.63;;;32.40;30.20;;;;;;5012375;28;20967;-50
2022/08/08 09:33:33;;;;;;;2.67;2.47;;;32.60;29.50;;;;;;5012377;28;20458;-49
2022/08/08 09:36:00;;;;;;;3.63;2.83;;;32.90;29.70;;;;;;5013240;28;20783;-48
2022/08/08 09:38:42;;;;;;;2.63;2.43;;;33.30;29.40;;;;;;5010542;28;20504;-47
2022/08/08 09:41:12;;;;;;;2.80;2.30;;;33.60;29.00;;;;;;5012556;28;20456;-49
2022/08/08 09:43:48;;;;;;;2.43;2.23;;;33.90;28.40;;;;;;5012213;28;20948;-49
2022/08/08 09:46:15;;;;;;;3.97;2.10;;;33.60;28.30;;;;;;5012694;28;20847;-49
2022/08/08 09:48:44;;;;;;;2.80;2.40;;;33.30;28.40;;;;;;5018814;28;20436;-46
2022/08/08 09:51:13;;;;;;;2.53;2.40;;;33.50;28.80;;;;;;5032061;28;20471;-50
2022/08/08 09:53:48;;;;;;;2.60;2.50;;;33.90;28.40;;;;;;5031628;28;20460;-47
2022/08/08 09:56:16;;;;;;;2.73;2.30;;;34.30;27.80;;;;;;5016346;28;20448;-47
2022/08/08 09:58:52;;;;;;;2.60;2.40;;;34.70;28.30;;;;;;5012142;28;20456;-47
2022/08/08 10:01:22;;;;;;;2.87;2.40;;;34.90;28.00;;;;;;5016764;28;20811;-47
2022/08/08 10:03:49;;;;;;;2.57;2.43;;;35.20;27.90;;;;;;5014726;28;20447;-49
2022/08/08 10:06:16;;;;;;;6.93;2.20;;;35.40;27.30;;;;;;5027132;28;20449;-49
2022/08/08 10:08:48;;;;;;;2.47;2.27;;;35.60;26.10;;;;;;5012129;28;20467;-50
2022/08/08 10:11:19;;;;;;;2.63;2.30;;;34.90;25.10;;;;;;5012159;28;21100;-46
2022/08/08 10:13:54;;;;;;;2.70;2.50;;;34.40;27.50;;;;;;5011596;28;20474;-47
2022/08/08 10:16:21;;;;;;;3.00;2.17;;;34.70;27.40;;;;;;5020071;28;20867;-49
2022/08/08 10:18:47;;;;;;;2.50;2.30;;;35.00;27.20;;;;;;5031405;28;20428;-48
2022/08/08 10:21:17;;;;;;;2.20;2.10;;;35.30;25.60;;;;;;5031343;28;20442;-49
2022/08/08 10:23:48;;;;;;;1.90;1.80;;;35.50;24.20;;;;;;5031367;28;20479;-49
2022/08/08 10:26:29;;;;;;;1.90;1.80;;;35.30;24.20;;;;;;5031765;28;20444;-46
2022/08/08 10:29:06;;;;;;;2.60;1.90;;;35.60;24.00;;;;;;5031045;28;20801;-48
2022/08/08 10:34:20;;;;;;;3.83;1.63;;;35.60;23.30;;;;;;5031392;28;20467;-45
2022/08/08 10:36:47;;;;;;;1.60;1.50;;;35.50;22.90;;;;;;5031651;28;20424;-49
2022/08/08 10:39:24;;;;;;;3.17;1.77;;;35.80;23.10;;;;;;5030833;28;20544;-46
2022/08/08 10:42:04;;;;;;;2.13;2.03;;;36.00;22.70;;;;;;5031149;28;20463;-45
2022/08/08 10:44:36;;;;;;;2.17;1.77;;;36.00;22.50;;;;;;5030771;28;21072;-46
2022/08/08 10:47:13;;;;;;;4.70;2.13;;;36.40;22.90;;;;;;5031022;28;20436;-45
2022/08/08 10:49:40;;;;;;;2.47;2.17;;;36.30;22.40;;;;;;5030200;28;20454;-46
2022/08/08 10:52:06;;;;;;;2.20;2.10;;;36.20;22.60;;;;;;5031205;28;20590;-49
2022/08/08 10:54:32;;;;;;;1.80;1.70;;;36.20;22.50;;;;;;5028606;28;20495;-50
2022/08/08 10:57:00;;;;;;;2.20;2.10;;;36.00;22.70;;;;;;5011662;28;20190;-49
2022/08/08 10:59:25;;;;;;;2.30;2.13;;;35.80;22.90;;;;;;5009125;28;20197;-50
2022/08/08 11:01:51;;;;;;;2.20;2.00;;;35.60;23.10;;;;;;5015557;28;20851;-49
2022/08/08 11:04:18;;;;;;;2.10;1.50;;;35.30;23.40;;;;;;5018605;28;20189;-49
2022/08/08 11:06:44;;;;;;;2.20;2.10;;;35.80;23.40;;;;;;5022221;28;20202;-50
2022/08/08 11:09:11;;;;;;;2.10;2.00;;;36.10;22.50;;;;;;5010922;28;20420;-48
2022/08/08 11:11:38;;;;;;;2.30;1.90;;;36.40;22.40;;;;;;5010865;28;20551;-49
2022/08/08 11:14:05;;;;;;;2.43;1.93;;;36.70;22.40;;;;;;5010640;28;20938;-47
2022/08/08 11:16:33;;;;;;;2.10;1.97;;;36.80;22.60;;;;;;5011386;28;20431;-49
2022/08/08 11:19:00;;;;;;;2.70;2.23;;;36.80;22.30;;;;;;5010562;28;20439;-50
2022/08/08 11:21:30;;;;;;;2.07;1.90;;;36.50;22.30;;;;;;5009517;28;20450;-48
2022/08/08 11:23:58;;;;;;;2.20;2.10;;;36.00;22.20;;;;;;5009628;28;20428;-46
2022/08/08 11:26:26;;;;;;;2.33;2.13;;;36.10;22.80;;;;;;5010964;28;20429;-49
2022/08/08 11:28:53;;;;;;;2.40;1.70;;;36.50;22.50;;;;;;5010550;28;20428;-49
2022/08/08 11:31:20;;;;;;;2.27;2.07;;;36.50;22.10;;;;;;5010572;28;20502;-47
2022/08/08 11:33:49;;;;;;;2.40;2.00;;;36.70;22.40;;;;;;5010647;28;20424;-50
2022/08/08 11:36:15;;;;;;;1.67;1.57;;;36.50;21.80;;;;;;5011237;28;20821;-50
2022/08/08 11:38:44;;;;;;;1.57;1.53;;;36.60;21.70;;;;;;5010262;28;20789;-48
2022/08/08 11:41:11;;;;;;;1.63;1.50;;;36.80;21.60;;;;;;5010561;28;20551;-49
2022/08/08 11:43:38;;;;;;;1.80;1.70;;;36.30;21.30;;;;;;5010324;28;21439;-49
2022/08/08 11:46:04;;;;;;;1.93;1.80;;;35.20;22.20;;;;;;5011078;28;20435;-46
2022/08/08 11:48:31;;;;;;;1.73;1.63;;;34.60;23.00;;;;;;5010462;28;20432;-50
2022/08/08 11:50:57;;;;;;;1.87;1.77;;;35.00;23.10;;;;;;5008902;28;20519;-48
2022/08/08 11:53:23;;;;;;;2.80;1.87;;;35.20;22.60;;;;;;5015963;28;20529;-50
2022/08/08 11:55:50;;;;;;;1.60;1.50;;;35.80;22.20;;;;;;5017867;28;20424;-50
2022/08/08 11:58:16;;;;;;;2.23;1.70;;;35.60;21.90;;;;;;5012340;28;20424;-48
2022/08/08 12:00:55;;;;;;;2.83;1.47;;;35.10;22.30;;;;;;5017993;28;20435;-50
2022/08/08 12:03:29;;;;;;;1.53;1.43;;;35.30;22.30;;;;;;5014215;28;20951;-49
2022/08/08 12:05:55;;;;;;;1.70;1.40;;;35.80;22.00;;;;;;5031972;28;20439;-46
2022/08/08 12:08:32;;;;;;;4.10;1.70;;;36.20;21.70;;;;;;5014370;28;21013;-49
2022/08/08 12:11:00;;;;;;;2.10;1.73;;;36.40;21.60;;;;;;5013977;28;20575;-48
2022/08/08 12:13:26;;;;;;;1.70;1.60;;;36.30;21.50;;;;;;5014129;28;20478;-48
2022/08/08 12:15:52;;;;;;;2.30;2.10;;;35.70;21.90;;;;;;5014706;28;20440;-50
2022/08/08 12:18:20;;;;;;;2.33;1.80;;;36.10;21.90;;;;;;5012534;28;20197;-47
2022/08/08 12:20:46;;;;;;;1.97;1.87;;;36.30;21.50;;;;;;5013604;28;20197;-50
2022/08/08 12:23:12;;;;;;;1.73;1.63;;;36.50;21.40;;;;;;5014373;28;20557;-49
2022/08/08 12:25:37;;;;;;;1.90;1.53;;;36.60;21.30;;;;;;5013743;28;20664;-50
2022/08/08 12:28:12;;;;;;;1.77;1.60;;;36.90;21.20;;;;;;5014233;28;20204;-48
2022/08/08 12:30:39;;;;;;;3.70;1.77;;;37.10;20.80;;;;;;5012980;28;20239;-50
2022/08/08 12:33:25;;;;;;;1.60;1.50;;;37.00;20.30;;;;;;5014060;28;20849;-49
2022/08/08 12:35:51;;;;;;;1.50;1.40;;;37.10;20.50;;;;;;5022987;28;20514;-49
2022/08/08 12:38:17;;;;;;;2.40;2.07;;;37.20;20.80;;;;;;5033702;28;20435;-49
2022/08/08 12:40:45;;;;;;;1.90;1.80;;;36.90;20.90;;;;;;5033085;28;20431;-49
2022/08/08 12:43:11;;;;;;;1.90;1.80;;;36.40;21.10;;;;;;5032262;28;20573;-49
2022/08/08 12:45:40;;;;;;;3.63;1.70;;;36.70;21.20;;;;;;5031885;28;20430;-50
2022/08/08 12:48:26;;;;;;;1.90;1.80;;;36.90;20.80;;;;;;5033483;28;20460;-50
2022/08/08 12:50:54;;;;;;;2.00;1.77;;;37.20;20.40;;;;;;5032878;28;20934;-50
2022/08/08 12:53:28;;;;;;;3.70;2.00;;;37.50;20.40;;;;;;5033323;28;20962;-50
2022/08/08 12:55:57;;;;;;;2.20;2.10;;;37.10;20.40;;;;;;5020244;28;20432;-50
2022/08/08 12:58:24;;;;;;;1.87;1.77;;;37.00;20.80;;;;;;5013046;28;20437;-50
2022/08/08 13:00:50;;;;;;;2.00;1.90;;;37.10;20.80;;;;;;5017989;28;20450;-49
2022/08/08 13:03:26;;;;;;;1.93;1.80;;;37.30;20.50;;;;;;5013633;28;20484;-51
2022/08/08 13:06:08;;;;;;;3.20;2.00;;;37.60;20.90;;;;;;5013412;28;20494;-49
2022/08/08 13:08:42;;;;;;;2.20;2.10;;;37.90;21.10;;;;;;5012423;28;20440;-50
2022/08/08 13:11:26;;;;;;;2.40;2.20;;;38.20;20.20;;;;;;5012615;28;20456;-50
2022/08/08 13:14:02;;;;;;;2.10;2.00;;;38.40;19.80;;;;;;5012842;28;20467;-50
2022/08/08 13:16:33;;;;;;;2.27;2.10;;;37.40;20.10;;;;;;5013116;28;20924;-50
2022/08/08 13:19:02;;;;;;;2.27;1.80;;;37.50;20.80;;;;;;5012945;28;20424;-48
2022/08/08 13:21:29;;;;;;;2.87;1.90;;;37.80;20.30;;;;;;5013040;28;20494;-45
2022/08/08 13:23:55;;;;;;;2.20;1.73;;;38.10;20.20;;;;;;5012528;28;20440;-47
2022/08/08 13:26:21;;;;;;;2.03;1.93;;;38.30;20.00;;;;;;5013149;28;20428;-45
2022/08/08 13:28:47;;;;;;;3.43;1.93;;;37.20;20.10;;;;;;5012444;28;20482;-46